createdAt,value
2017-12-21T00:02:28.583Z,24.70
2017-12-21T00:05:01.164Z,30.10
2017-12-21T00:07:33.781Z,34.60
2017-12-21T00:10:06.291Z,28.33
2017-12-21T00:12:38.802Z,27.37
2017-12-21T00:15:11.302Z,26.20
2017-12-21T00:17:43.805Z,30.77
2017-12-21T00:20:16.320Z,27.93
2017-12-21T00:22:48.852Z,26.90
2017-12-21T00:25:21.424Z,28.20
2017-12-21T00:27:53.936Z,26.97
2017-12-21T00:30:26.573Z,32.00
2017-12-21T00:32:59.227Z,25.63
2017-12-21T00:35:31.744Z,33.10
2017-12-21T00:38:04.268Z,33.90
2017-12-21T00:40:36.776Z,31.10
2017-12-21T00:43:09.348Z,29.33
2017-12-21T00:45:41.868Z,26.57
2017-12-21T00:48:14.378Z,21.77
2017-12-21T00:50:46.869Z,27.37
2017-12-21T00:53:19.429Z,22.67
2017-12-21T00:55:53.820Z,30.30
2017-12-21T00:58:26.462Z,28.77
2017-12-21T01:00:59.045Z,28.23
2017-12-21T01:03:31.598Z,24.53
2017-12-21T01:06:04.155Z,22.03
2017-12-21T01:08:36.666Z,25.43
2017-12-21T01:11:09.355Z,25.13
2017-12-21T01:13:41.867Z,22.53
2017-12-21T01:16:14.356Z,25.43
2017-12-21T01:18:46.883Z,22.53
2017-12-21T01:21:19.377Z,28.93
2017-12-21T01:23:51.890Z,24.47
2017-12-21T01:26:24.780Z,21.63
2017-12-21T01:28:57.360Z,29.10
2017-12-21T01:31:29.910Z,24.27
2017-12-21T01:34:02.461Z,23.33
2017-12-21T01:36:34.975Z,24.50
2017-12-21T01:39:07.543Z,23.07
2017-12-21T01:41:40.118Z,28.33
2017-12-21T01:44:12.625Z,22.10
2017-12-21T01:46:45.142Z,23.10
2017-12-21T01:49:17.662Z,26.70
2017-12-21T01:51:50.225Z,23.83
2017-12-21T01:54:22.908Z,20.03
2017-12-21T01:56:55.899Z,18.63
2017-12-21T01:59:28.790Z,21.63
2017-12-21T02:02:01.304Z,18.80
2017-12-21T02:04:33.897Z,14.77
2017-12-21T02:07:06.446Z,16.60
2017-12-21T02:09:38.975Z,17.20
2017-12-21T02:12:11.459Z,19.63
2017-12-21T02:14:43.983Z,14.20
2017-12-21T02:17:16.466Z,15.53
2017-12-21T02:19:49.008Z,16.03
2017-12-21T02:22:21.556Z,15.90
2017-12-21T02:24:54.174Z,18.67
2017-12-21T02:27:26.866Z,14.77
2017-12-21T02:29:59.452Z,14.27
2017-12-21T02:32:31.975Z,13.67
2017-12-21T02:35:09.273Z,15.10
2017-12-21T02:37:41.801Z,14.80
2017-12-21T02:40:14.387Z,13.83
2017-12-21T02:42:46.891Z,13.63
2017-12-21T02:45:19.371Z,12.77
2017-12-21T02:47:55.345Z,13.40
2017-12-21T02:50:27.851Z,10.90
2017-12-21T02:53:00.401Z,13.93
2017-12-21T02:55:32.943Z,10.10
2017-12-21T02:58:05.481Z,10.67
2017-12-21T03:00:37.986Z,11.07
2017-12-21T03:03:10.496Z,10.97
2017-12-21T03:05:43.007Z,9.00
2017-12-21T03:08:15.524Z,10.17
2017-12-21T03:10:48.016Z,9.97
2017-12-21T03:13:22.337Z,9.00
2017-12-21T03:15:55.157Z,10.40
2017-12-21T03:18:27.718Z,8.70
2017-12-21T03:21:00.361Z,8.33
2017-12-21T03:23:32.904Z,9.00
2017-12-21T03:26:05.438Z,11.30
2017-12-21T03:28:39.916Z,7.67
2017-12-21T03:31:12.401Z,9.17
2017-12-21T03:33:44.915Z,9.70
2017-12-21T03:36:17.424Z,9.00
2017-12-21T03:38:49.920Z,7.77
2017-12-21T03:41:27.067Z,6.83
2017-12-21T03:43:59.635Z,8.07
2017-12-21T03:46:32.468Z,9.27
2017-12-21T03:49:05.071Z,10.00
2017-12-21T03:51:37.637Z,9.17
2017-12-21T03:54:10.221Z,6.67
2017-12-21T03:56:42.934Z,9.63
2017-12-21T03:59:15.439Z,9.20
2017-12-21T04:01:47.930Z,6.93
2017-12-21T04:04:20.455Z,6.53
2017-12-21T04:06:53.573Z,9.77
2017-12-21T04:09:26.121Z,6.27
2017-12-21T04:11:58.811Z,8.37
2017-12-21T04:14:31.547Z,6.80
2017-12-21T04:17:04.635Z,6.30
2017-12-21T04:19:37.262Z,5.93
2017-12-21T04:22:09.749Z,5.73
2017-12-21T04:24:42.255Z,9.27
2017-12-21T04:27:14.782Z,6.20
2017-12-21T04:29:47.299Z,6.50
2017-12-21T04:32:19.776Z,5.80
2017-12-21T04:34:53.132Z,5.53
2017-12-21T04:37:26.100Z,6.53
2017-12-21T04:39:58.801Z,4.43
2017-12-21T04:42:31.348Z,5.50
2017-12-21T04:45:04.184Z,7.70
2017-12-21T04:47:36.789Z,6.63
2017-12-21T04:50:09.358Z,4.57
2017-12-21T04:52:41.850Z,5.47
2017-12-21T04:55:14.358Z,5.83
2017-12-21T04:57:47.252Z,4.97
2017-12-21T05:00:19.799Z,4.33
2017-12-21T05:02:52.584Z,5.63
2017-12-21T05:05:25.479Z,7.00
2017-12-21T05:07:58.071Z,5.40
2017-12-21T05:10:31.780Z,3.77
2017-12-21T05:13:04.276Z,4.00
2017-12-21T05:15:36.853Z,4.40
2017-12-21T05:18:10.078Z,5.20
2017-12-21T05:20:42.585Z,3.47
2017-12-21T05:23:15.084Z,4.20
2017-12-21T05:25:47.616Z,5.50
2017-12-21T05:28:20.138Z,5.50
2017-12-21T05:30:53.029Z,3.60
2017-12-21T05:33:26.258Z,5.83
2017-12-21T05:35:58.764Z,4.20
2017-12-21T05:38:31.270Z,3.80
2017-12-21T05:41:03.839Z,4.53
2017-12-21T05:43:42.363Z,4.13
2017-12-21T05:46:14.849Z,5.67
2017-12-21T05:48:47.375Z,4.20
2017-12-21T05:51:19.903Z,4.37
2017-12-21T05:53:52.532Z,4.57
2017-12-21T05:56:25.033Z,5.07
2017-12-21T05:58:57.529Z,3.87
2017-12-21T06:01:30.397Z,3.63
2017-12-21T06:04:02.955Z,4.97
2017-12-21T06:06:35.476Z,5.13
2017-12-21T06:09:08.092Z,6.07
2017-12-21T06:11:40.621Z,5.07
2017-12-21T06:14:14.599Z,4.77
2017-12-21T06:16:47.089Z,4.03
2017-12-21T06:19:19.622Z,6.30
2017-12-21T06:21:52.338Z,5.03
2017-12-21T06:24:24.864Z,4.90
2017-12-21T06:26:57.830Z,6.43
2017-12-21T06:29:30.420Z,4.97
2017-12-21T06:32:02.906Z,5.87
2017-12-21T06:34:35.435Z,5.37
2017-12-21T06:37:08.072Z,5.17
2017-12-21T06:39:40.592Z,5.20
2017-12-21T06:42:14.590Z,5.40
2017-12-21T06:44:47.100Z,5.60
2017-12-21T06:47:19.579Z,5.20
2017-12-21T06:49:52.188Z,5.87
2017-12-21T06:52:24.690Z,5.63
2017-12-21T06:54:57.194Z,6.07
2017-12-21T06:57:29.670Z,6.10
2017-12-21T07:00:11.264Z,5.80
2017-12-21T07:02:43.742Z,5.37
2017-12-21T07:05:16.240Z,4.97
2017-12-21T07:07:48.761Z,8.20
2017-12-21T07:10:21.481Z,7.87
2017-12-21T07:12:57.146Z,8.13
2017-12-21T07:15:30.359Z,6.13
2017-12-21T07:18:03.255Z,7.80
2017-12-21T07:20:35.765Z,7.67
2017-12-21T07:23:09.340Z,8.43
2017-12-21T07:25:41.865Z,6.60
2017-12-21T07:28:14.392Z,6.63
2017-12-21T07:30:59.456Z,10.60
2017-12-21T07:33:32.160Z,9.43
2017-12-21T07:36:04.681Z,8.10
2017-12-21T07:38:37.302Z,8.10
2017-12-21T07:41:09.839Z,9.63
2017-12-21T07:43:42.378Z,7.77
2017-12-21T07:46:14.952Z,8.73
2017-12-21T07:48:47.429Z,7.40
2017-12-21T07:51:19.955Z,7.97
2017-12-21T07:53:52.562Z,7.93
2017-12-21T07:56:25.076Z,7.23
2017-12-21T07:59:01.217Z,7.17
2017-12-21T08:04:12.915Z,7.73
2017-12-21T08:06:53.136Z,8.83
2017-12-21T08:09:25.881Z,10.33
2017-12-21T08:11:58.823Z,8.17
2017-12-21T08:14:31.775Z,11.03
2017-12-21T08:17:04.506Z,9.97
2017-12-21T08:19:37.061Z,8.80
2017-12-21T08:22:09.598Z,9.30
2017-12-21T08:24:42.113Z,8.97
2017-12-21T08:27:15.548Z,9.43
2017-12-21T08:29:48.096Z,10.17
2017-12-21T08:32:28.244Z,15.63
2017-12-21T08:35:02.603Z,10.20
2017-12-21T08:37:35.130Z,11.00
2017-12-21T08:40:07.657Z,8.73
2017-12-21T08:42:40.171Z,10.43
2017-12-21T08:45:12.723Z,9.47
2017-12-21T08:47:45.314Z,10.53
2017-12-21T08:50:17.860Z,10.53
2017-12-21T08:52:50.343Z,10.53
2017-12-21T08:55:23.047Z,9.97
2017-12-21T08:57:55.645Z,10.13
2017-12-21T09:00:28.165Z,8.33
2017-12-21T09:03:00.676Z,8.90
2017-12-21T09:05:33.218Z,14.80
2017-12-21T09:08:05.816Z,10.60
2017-12-21T09:10:38.378Z,11.67
2017-12-21T09:13:10.920Z,9.80
2017-12-21T09:16:03.738Z,9.73
2017-12-21T09:18:36.361Z,8.60
2017-12-21T09:21:08.888Z,10.00
2017-12-21T09:23:41.474Z,9.90
2017-12-21T09:26:13.993Z,8.80
2017-12-21T09:28:46.489Z,9.50
2017-12-21T09:31:22.944Z,9.20
2017-12-21T09:33:56.239Z,8.07
2017-12-21T09:36:29.004Z,7.87
2017-12-21T09:39:01.500Z,8.13
2017-12-21T09:41:34.971Z,7.90
2017-12-21T09:44:07.823Z,7.23
2017-12-21T09:46:40.680Z,7.23
2017-12-21T09:49:13.288Z,7.73
2017-12-21T09:51:47.763Z,7.20
2017-12-21T09:54:20.852Z,7.23
2017-12-21T09:56:53.379Z,7.80
2017-12-21T09:59:25.935Z,7.40
2017-12-21T10:01:58.454Z,7.57
2017-12-21T10:04:30.940Z,7.10
2017-12-21T10:07:03.509Z,6.60
2017-12-21T10:09:36.083Z,7.30
2017-12-21T10:12:08.637Z,6.73
2017-12-21T10:14:41.145Z,6.77
2017-12-21T10:17:13.632Z,6.77
2017-12-21T10:19:46.665Z,5.20
2017-12-21T10:22:19.257Z,6.30
2017-12-21T10:24:53.373Z,5.60
2017-12-21T10:27:27.381Z,4.93
2017-12-21T10:30:00.024Z,5.03
2017-12-21T10:32:32.618Z,5.97
2017-12-21T10:35:05.115Z,5.73
2017-12-21T10:37:37.590Z,5.37
2017-12-21T10:40:10.105Z,4.47
2017-12-21T10:42:42.599Z,5.20
2017-12-21T10:45:17.141Z,5.00
2017-12-21T10:47:49.948Z,4.50
2017-12-21T10:50:22.507Z,4.87
2017-12-21T10:52:55.574Z,4.50
2017-12-21T10:55:28.191Z,4.30
2017-12-21T10:58:01.877Z,4.70
2017-12-21T11:00:34.930Z,4.37
2017-12-21T11:03:07.514Z,4.20
2017-12-21T11:05:41.300Z,4.07
2017-12-21T11:08:13.778Z,3.87
2017-12-21T11:10:46.307Z,3.63
2017-12-21T11:13:18.786Z,3.70
2017-12-21T11:15:51.363Z,3.77
2017-12-21T11:18:23.920Z,3.20
2017-12-21T11:20:57.449Z,3.37
2017-12-21T11:23:30.277Z,2.90
2017-12-21T11:26:02.838Z,2.83
2017-12-21T11:28:35.455Z,3.30
2017-12-21T11:31:07.950Z,3.57
2017-12-21T11:33:40.474Z,3.53
2017-12-21T11:36:12.969Z,3.40
2017-12-21T11:38:45.594Z,3.87
2017-12-21T11:41:18.110Z,3.70
2017-12-21T11:43:50.651Z,4.00
2017-12-21T11:46:23.213Z,4.67
2017-12-21T11:48:55.718Z,4.00
2017-12-21T11:51:28.807Z,4.97
2017-12-21T11:54:01.297Z,4.70
2017-12-21T11:56:34.340Z,4.70
2017-12-21T11:59:06.878Z,4.87
2017-12-21T12:01:39.502Z,5.33
2017-12-21T12:04:11.981Z,5.67
2017-12-21T12:06:44.476Z,5.53
2017-12-21T12:09:18.123Z,5.90
2017-12-21T12:11:50.647Z,5.30
2017-12-21T12:14:23.144Z,6.10
2017-12-21T12:16:55.653Z,5.90
2017-12-21T12:19:28.200Z,6.30
2017-12-21T12:22:00.799Z,5.60
2017-12-21T12:24:33.281Z,6.60
2017-12-21T12:27:05.796Z,5.60
2017-12-21T12:29:39.360Z,5.40
2017-12-21T12:32:11.901Z,6.10
2017-12-21T12:34:44.410Z,6.03
2017-12-21T12:37:16.914Z,6.20
2017-12-21T12:39:49.493Z,6.13
2017-12-21T12:42:22.238Z,4.90
2017-12-21T12:44:54.829Z,6.07
2017-12-21T12:47:27.333Z,5.20
2017-12-21T12:49:59.847Z,5.10
2017-12-21T12:52:32.369Z,4.60
2017-12-21T12:55:04.896Z,5.60
2017-12-21T12:57:37.468Z,4.73
2017-12-21T13:00:09.973Z,4.73
2017-12-21T13:02:42.480Z,4.90
2017-12-21T13:05:23.370Z,4.73
2017-12-21T13:07:56.231Z,5.07
2017-12-21T13:10:29.241Z,4.50
2017-12-21T13:13:01.809Z,4.87
2017-12-21T13:15:39.166Z,4.87
2017-12-21T13:18:11.670Z,4.90
2017-12-21T13:20:44.256Z,5.10
2017-12-21T13:23:16.768Z,4.70
2017-12-21T13:25:51.247Z,4.93
2017-12-21T13:28:23.773Z,4.40
2017-12-21T13:30:56.389Z,4.77
2017-12-21T13:33:29.007Z,5.33
2017-12-21T13:36:02.634Z,4.50
2017-12-21T13:38:35.152Z,4.63
2017-12-21T13:41:07.664Z,4.83
2017-12-21T13:43:40.171Z,4.53
2017-12-21T13:46:12.679Z,5.10
2017-12-21T13:48:45.156Z,4.77
2017-12-21T13:51:17.662Z,4.87
2017-12-21T13:53:50.274Z,4.80
2017-12-21T13:56:22.799Z,4.37
2017-12-21T13:58:55.901Z,4.70
2017-12-21T14:01:28.501Z,4.13
2017-12-21T14:04:01.003Z,5.60
2017-12-21T14:06:33.503Z,4.77
2017-12-21T14:09:06.859Z,4.30
2017-12-21T14:11:40.732Z,4.57
2017-12-21T14:14:13.979Z,4.30
2017-12-21T14:16:46.477Z,4.37
2017-12-21T14:19:19.028Z,3.70
2017-12-21T14:21:52.391Z,4.40
2017-12-21T14:24:24.888Z,4.40
2017-12-21T14:26:57.461Z,5.20
2017-12-21T14:29:30.137Z,5.73
2017-12-21T14:32:02.760Z,5.20
2017-12-21T14:34:35.312Z,5.20
2017-12-21T14:37:07.809Z,6.30
2017-12-21T14:39:40.287Z,10.43
2017-12-21T14:42:12.828Z,7.60
2017-12-21T14:44:45.418Z,4.00
2017-12-21T14:47:18.207Z,4.77
2017-12-21T14:49:50.845Z,5.30
2017-12-21T14:52:23.431Z,5.63
2017-12-21T14:54:55.915Z,4.97
2017-12-21T14:57:28.416Z,4.40
2017-12-21T15:00:00.926Z,4.50
2017-12-21T15:02:33.433Z,4.43
2017-12-21T15:05:05.913Z,4.43
2017-12-21T15:07:38.430Z,4.70
2017-12-21T15:10:10.932Z,4.20
2017-12-21T15:12:43.441Z,4.10
2017-12-21T15:15:15.934Z,4.60
2017-12-21T15:17:48.479Z,4.40
2017-12-21T15:20:21.310Z,4.43
2017-12-21T15:22:54.146Z,4.10
2017-12-21T15:25:29.499Z,4.33
2017-12-21T15:28:02.038Z,3.90
2017-12-21T15:30:34.584Z,4.10
2017-12-21T15:33:07.212Z,4.63
2017-12-21T15:35:39.694Z,3.70
2017-12-21T15:38:12.191Z,4.87
2017-12-21T15:40:44.671Z,4.63
2017-12-21T15:43:17.172Z,4.20
2017-12-21T15:45:49.642Z,4.27
2017-12-21T15:48:22.718Z,4.97
2017-12-21T15:50:55.999Z,4.90
2017-12-21T15:53:28.537Z,5.00
2017-12-21T15:56:01.074Z,4.67
2017-12-21T15:58:33.732Z,4.60
2017-12-21T16:01:06.238Z,5.67
2017-12-21T16:03:38.747Z,4.70
2017-12-21T16:06:11.230Z,4.50
2017-12-21T16:08:43.739Z,4.77
2017-12-21T16:11:16.224Z,5.03
2017-12-21T16:13:48.760Z,4.13
2017-12-21T16:16:21.334Z,5.70
2017-12-21T16:18:54.562Z,5.30
2017-12-21T16:21:27.327Z,4.87
2017-12-21T16:24:00.064Z,5.40
2017-12-21T16:26:32.743Z,5.37
2017-12-21T16:29:06.082Z,5.70
2017-12-21T16:31:38.626Z,5.30
2017-12-21T16:34:11.136Z,5.30
2017-12-21T16:36:43.634Z,4.90
2017-12-21T16:39:16.118Z,5.27
2017-12-21T16:41:50.912Z,5.07
2017-12-21T16:44:23.959Z,5.90
2017-12-21T16:46:56.948Z,6.50
2017-12-21T16:49:29.556Z,6.10
2017-12-21T16:52:02.120Z,6.37
2017-12-21T16:54:34.621Z,6.90
2017-12-21T16:57:07.119Z,6.70
2017-12-21T16:59:39.603Z,6.50
2017-12-21T17:02:12.293Z,6.43
2017-12-21T17:04:44.799Z,5.60
2017-12-21T17:07:17.300Z,5.90
2017-12-21T17:09:51.165Z,5.00
2017-12-21T17:12:24.256Z,5.13
2017-12-21T17:14:57.249Z,6.87
2017-12-21T17:17:29.791Z,6.00
2017-12-21T17:20:02.280Z,5.57
2017-12-21T17:22:35.693Z,5.53
2017-12-21T17:25:08.248Z,6.07
2017-12-21T17:27:40.756Z,4.57
2017-12-21T17:30:13.244Z,4.43
2017-12-21T17:32:45.739Z,5.30
2017-12-21T17:35:18.560Z,5.17
2017-12-21T17:37:51.822Z,5.40
2017-12-21T17:40:24.422Z,6.67
2017-12-21T17:42:57.280Z,6.60
2017-12-21T17:45:29.954Z,8.07
2017-12-21T17:48:02.517Z,6.77
2017-12-21T17:50:35.021Z,6.60
2017-12-21T17:53:07.720Z,6.63
2017-12-21T17:55:40.233Z,5.67
2017-12-21T17:58:12.749Z,6.00
2017-12-21T18:00:45.223Z,6.20
2017-12-21T18:03:17.763Z,6.07
2017-12-21T18:05:57.752Z,6.67
2017-12-21T18:08:30.506Z,9.33
2017-12-21T18:11:03.057Z,8.40
2017-12-21T18:13:35.560Z,7.77
2017-12-21T18:16:08.085Z,7.70
2017-12-21T18:18:40.597Z,7.63
2017-12-21T18:21:13.081Z,8.27
2017-12-21T18:23:45.587Z,8.27
2017-12-21T18:26:18.061Z,7.83
2017-12-21T18:28:50.995Z,7.93
2017-12-21T18:31:24.521Z,9.00
2017-12-21T18:33:57.069Z,10.53
2017-12-21T18:36:29.583Z,9.43
2017-12-21T18:39:02.329Z,9.07
2017-12-21T18:41:35.725Z,9.17
2017-12-21T18:44:08.244Z,9.50
2017-12-21T18:46:40.731Z,9.43
2017-12-21T18:49:13.247Z,9.73
2017-12-21T18:51:45.882Z,10.23
2017-12-21T18:54:30.319Z,9.90
2017-12-21T18:57:02.812Z,9.70
2017-12-21T18:59:35.335Z,10.27
2017-12-21T19:02:07.836Z,10.50
2017-12-21T19:04:40.341Z,10.40
2017-12-21T19:07:12.826Z,9.67
2017-12-21T19:09:45.344Z,10.93
2017-12-21T19:12:17.832Z,9.47
2017-12-21T19:14:50.896Z,10.57
2017-12-21T19:17:23.679Z,9.37
2017-12-21T19:19:56.272Z,8.57
2017-12-21T19:22:28.841Z,8.00
2017-12-21T19:25:01.370Z,7.40
2017-12-21T19:27:33.888Z,7.37
2017-12-21T19:30:06.776Z,7.57
2017-12-21T19:32:39.281Z,7.73
2017-12-21T19:35:11.776Z,8.20
2017-12-21T19:37:44.305Z,8.07
2017-12-21T19:40:16.806Z,8.13
2017-12-21T19:42:49.314Z,7.57
2017-12-21T19:45:21.817Z,8.10
2017-12-21T19:47:54.330Z,8.50
2017-12-21T19:50:26.936Z,8.80
2017-12-21T19:52:59.520Z,9.70
2017-12-21T19:55:32.060Z,9.93
2017-12-21T19:58:04.625Z,10.73
2017-12-21T20:00:37.207Z,9.93
2017-12-21T20:03:09.717Z,11.20
2017-12-21T20:05:42.264Z,11.33
2017-12-21T20:08:14.780Z,11.00
2017-12-21T20:10:47.262Z,11.47
2017-12-21T20:13:19.891Z,10.83
2017-12-21T20:15:53.309Z,11.07
2017-12-21T20:18:25.973Z,11.93
2017-12-21T20:20:58.476Z,11.00
2017-12-21T20:23:30.985Z,11.60
2017-12-21T20:26:03.484Z,10.87
2017-12-21T20:28:36.038Z,11.30
2017-12-21T20:31:08.542Z,10.37
2017-12-21T20:33:41.092Z,11.13
2017-12-21T20:36:13.578Z,10.33
2017-12-21T20:38:46.082Z,11.40
2017-12-21T20:41:18.588Z,12.07
2017-12-21T20:43:51.088Z,12.00
2017-12-21T20:46:29.504Z,12.73
2017-12-21T20:49:02.279Z,12.00
2017-12-21T20:51:36.359Z,12.47
2017-12-21T20:54:08.964Z,12.77
2017-12-21T20:56:41.540Z,13.00
2017-12-21T20:59:14.049Z,13.40
2017-12-21T21:01:46.576Z,13.83
2017-12-21T21:04:19.285Z,15.20
2017-12-21T21:06:55.522Z,15.83
2017-12-21T21:09:28.267Z,16.30
2017-12-21T21:12:00.787Z,16.80
2017-12-21T21:14:33.341Z,17.07
2017-12-21T21:17:06.077Z,16.97
2017-12-21T21:19:38.629Z,16.80
2017-12-21T21:22:11.110Z,17.13
2017-12-21T21:24:43.622Z,17.83
2017-12-21T21:27:16.146Z,18.30
2017-12-21T21:29:48.943Z,16.67
2017-12-21T21:32:21.954Z,17.23
2017-12-21T21:34:55.641Z,18.03
2017-12-21T21:37:28.230Z,18.67
2017-12-21T21:40:00.797Z,19.97
2017-12-21T21:42:33.802Z,19.23
2017-12-21T21:45:06.530Z,19.40
2017-12-21T21:47:39.034Z,18.30
2017-12-21T21:50:11.591Z,18.17
2017-12-21T21:52:44.083Z,19.13
2017-12-21T21:55:16.600Z,16.80
2017-12-21T21:57:49.085Z,18.30
2017-12-21T22:00:24.332Z,17.60
2017-12-21T22:02:57.667Z,18.03
2017-12-21T22:05:30.801Z,17.87
2017-12-21T22:08:03.292Z,18.80
2017-12-21T22:10:35.900Z,18.30
2017-12-21T22:13:08.427Z,20.47
2017-12-21T22:15:40.942Z,17.87
2017-12-21T22:18:13.443Z,16.47
2017-12-21T22:20:45.944Z,18.67
2017-12-21T22:23:18.428Z,18.27
2017-12-21T22:25:52.225Z,18.93
2017-12-21T22:28:25.143Z,18.57
2017-12-21T22:30:57.812Z,19.20
2017-12-21T22:33:30.308Z,18.47
2017-12-21T22:36:02.843Z,18.57
2017-12-21T22:38:35.328Z,18.33
2017-12-21T22:41:07.839Z,19.00
2017-12-21T22:43:40.327Z,19.77
2017-12-21T22:46:12.851Z,18.57
2017-12-21T22:48:45.328Z,18.10
2017-12-21T22:51:17.828Z,18.57
2017-12-21T22:53:51.593Z,20.03
2017-12-21T22:56:24.511Z,18.60
2017-12-21T22:58:57.260Z,20.33
2017-12-21T23:01:29.829Z,21.23
2017-12-21T23:04:02.326Z,21.43
2017-12-21T23:06:34.950Z,19.83
2017-12-21T23:09:07.506Z,21.43
2017-12-21T23:11:40.011Z,18.90
2017-12-21T23:14:12.516Z,20.27
2017-12-21T23:16:45.031Z,20.33
2017-12-21T23:19:17.519Z,20.83
2017-12-21T23:21:50.087Z,20.87
2017-12-21T23:24:22.603Z,21.57
2017-12-21T23:26:55.186Z,22.97
2017-12-21T23:29:27.838Z,22.27
2017-12-21T23:32:01.431Z,23.27
2017-12-21T23:34:34.055Z,22.13
2017-12-21T23:37:06.614Z,24.07
2017-12-21T23:39:39.095Z,24.13
2017-12-21T23:42:11.644Z,23.87
2017-12-21T23:44:44.121Z,25.10
2017-12-21T23:47:16.696Z,27.40
2017-12-21T23:49:49.213Z,24.23
2017-12-21T23:52:25.229Z,25.90
2017-12-21T23:54:58.635Z,24.27
2017-12-21T23:57:31.212Z,25.57
